createdAt,value
2022-12-04T01:28:30.748Z,4.65
2022-12-04T01:31:35.823Z,4.12
2022-12-04T01:34:41.309Z,5.25
2022-12-04T01:37:46.336Z,3.52
2022-12-04T01:40:45.384Z,3.75
2022-12-04T01:43:51.660Z,3.57
2022-12-04T01:47:01.330Z,3.83
2022-12-04T01:50:06.583Z,3.83
2022-12-04T01:53:11.520Z,2.98
2022-12-04T01:56:15.927Z,3.65
2022-12-04T01:59:21.061Z,4.22
2022-12-04T02:02:28.637Z,5.00
2022-12-04T02:05:35.585Z,3.52
2022-12-04T02:08:41.766Z,3.85
2022-12-04T02:12:18.095Z,4.12
2022-12-04T02:15:39.228Z,2.70
2022-12-04T02:18:53.926Z,3.27
2022-12-04T02:21:59.190Z,4.78
2022-12-04T02:25:37.656Z,4.28
2022-12-04T02:28:59.752Z,4.17
2022-12-04T02:32:26.645Z,3.77
2022-12-04T02:35:43.978Z,3.12
2022-12-04T02:39:17.312Z,3.67
2022-12-04T02:42:53.599Z,2.70
2022-12-04T02:46:01.519Z,4.53
2022-12-04T02:49:08.518Z,3.62
2022-12-04T02:52:13.646Z,3.33
2022-12-04T02:55:37.458Z,3.20
2022-12-04T02:58:45.845Z,4.20
2022-12-04T03:01:54.547Z,4.10
2022-12-04T03:05:00.004Z,3.55
2022-12-04T03:08:12.265Z,4.25
2022-12-04T03:11:18.353Z,4.67
2022-12-04T03:14:28.757Z,4.25
2022-12-04T03:17:41.395Z,2.25
2022-12-04T03:20:48.339Z,4.70
2022-12-04T03:24:01.323Z,4.60
2022-12-04T03:27:39.422Z,3.15
2022-12-04T03:30:52.188Z,3.00
2022-12-04T03:34:01.183Z,4.95
2022-12-04T03:37:10.757Z,5.58
2022-12-04T03:40:35.280Z,3.22
2022-12-04T03:43:58.720Z,3.10
2022-12-04T03:47:20.922Z,2.62
2022-12-04T03:50:32.729Z,3.15
2022-12-04T03:53:45.897Z,2.55
2022-12-04T03:56:54.508Z,2.70
2022-12-04T04:00:13.240Z,2.58
2022-12-04T04:03:45.911Z,2.60
2022-12-04T04:06:58.804Z,2.50
2022-12-04T04:10:05.289Z,1.95
2022-12-04T04:13:33.621Z,2.90
2022-12-04T04:16:57.569Z,2.60
2022-12-04T04:20:24.384Z,3.60
2022-12-04T04:23:47.164Z,2.17
2022-12-04T04:26:56.566Z,2.87
2022-12-04T04:30:01.233Z,2.50
2022-12-04T04:33:21.752Z,2.12
2022-12-04T04:36:40.856Z,2.15
2022-12-04T04:40:17.322Z,2.67
2022-12-04T04:43:35.205Z,3.22
2022-12-04T04:46:49.525Z,2.00
2022-12-04T04:49:54.733Z,2.98
2022-12-04T04:53:06.150Z,2.00
2022-12-04T04:56:10.748Z,2.65
2022-12-04T04:59:16.086Z,2.55
2022-12-04T05:02:20.834Z,2.72
2022-12-04T05:05:26.554Z,2.83
2022-12-04T05:08:31.420Z,1.90
2022-12-04T05:11:37.381Z,2.35
2022-12-04T05:14:43.741Z,2.37
2022-12-04T05:17:50.727Z,3.08
2022-12-04T05:20:55.480Z,2.45
2022-12-04T05:24:00.111Z,2.60
2022-12-04T05:26:58.411Z,2.62
2022-12-04T05:29:57.651Z,2.37
2022-12-04T05:33:03.121Z,2.40
2022-12-04T05:36:16.418Z,2.33
2022-12-04T05:39:21.999Z,3.12
2022-12-04T05:42:27.732Z,2.00
2022-12-04T05:45:33.178Z,2.17
2022-12-04T05:48:38.737Z,2.60
2022-12-04T05:51:44.639Z,3.20
2022-12-04T05:54:50.600Z,2.25
2022-12-04T05:57:57.174Z,2.47
2022-12-04T06:01:02.769Z,2.83
2022-12-04T06:04:07.938Z,3.15
2022-12-04T06:07:12.261Z,2.37
2022-12-04T06:10:17.574Z,2.83
2022-12-04T06:13:22.810Z,1.62
2022-12-04T06:16:31.161Z,2.75
2022-12-04T06:19:35.893Z,1.77
2022-12-04T06:22:41.611Z,2.17
2022-12-04T06:25:49.235Z,1.95
2022-12-04T06:28:55.365Z,3.98
2022-12-04T06:32:01.903Z,2.55
2022-12-04T06:35:08.632Z,3.02
2022-12-04T06:38:14.998Z,2.20
2022-12-04T06:41:22.467Z,3.35
2022-12-04T06:44:29.807Z,3.90
2022-12-04T06:47:34.393Z,1.95
2022-12-04T06:50:40.260Z,2.50
2022-12-04T06:53:45.761Z,3.30
2022-12-04T06:56:51.463Z,2.42
2022-12-04T06:59:56.751Z,3.02
2022-12-04T07:03:01.810Z,2.85
2022-12-04T07:06:08.034Z,2.27
2022-12-04T07:09:16.359Z,3.15
2022-12-04T07:12:22.557Z,2.70
2022-12-04T07:15:28.316Z,3.05
2022-12-04T07:18:33.296Z,3.37
2022-12-04T07:21:44.781Z,2.33
2022-12-04T07:24:50.142Z,3.22
2022-12-04T07:27:56.466Z,4.60
2022-12-04T07:31:03.233Z,4.75
2022-12-04T07:34:09.069Z,4.65
2022-12-04T07:37:14.691Z,3.70
2022-12-04T07:40:20.788Z,2.45
2022-12-04T07:43:27.712Z,2.42
2022-12-04T07:46:39.473Z,3.25
2022-12-04T07:49:43.926Z,2.10
2022-12-04T07:52:54.119Z,3.58
2022-12-04T07:56:00.499Z,3.08
2022-12-04T07:59:07.028Z,2.55
2022-12-04T08:02:13.427Z,4.28
2022-12-04T08:05:18.285Z,2.60
2022-12-04T08:08:22.910Z,3.50
2022-12-04T08:11:30.872Z,3.08
2022-12-04T08:14:36.054Z,4.37
2022-12-04T08:17:40.742Z,3.25
2022-12-04T08:20:45.352Z,3.30
2022-12-04T08:23:51.332Z,2.22
2022-12-04T08:26:58.099Z,4.70
2022-12-04T08:30:03.688Z,2.87
2022-12-04T08:33:09.441Z,1.98
2022-12-04T08:36:15.068Z,4.37
2022-12-04T08:39:21.312Z,3.10
2022-12-04T08:42:26.874Z,2.62
2022-12-04T08:45:32.070Z,3.95
2022-12-04T08:48:39.093Z,3.05
2022-12-04T08:51:45.637Z,3.00
2022-12-04T08:54:51.190Z,1.92
2022-12-04T08:57:56.299Z,3.22
2022-12-04T09:01:03.762Z,4.42
2022-12-04T09:04:09.217Z,2.67
2022-12-04T09:07:14.611Z,3.58
2022-12-04T09:10:21.130Z,2.87
2022-12-04T09:13:26.699Z,2.90
2022-12-04T09:16:37.452Z,2.80
2022-12-04T09:19:43.842Z,3.90
2022-12-04T09:23:03.519Z,2.95
2022-12-04T09:25:55.364Z,3.05
2022-12-04T09:29:01.413Z,2.42
2022-12-04T09:32:06.765Z,2.40
2022-12-04T09:35:12.506Z,2.35
2022-12-04T09:38:17.970Z,3.00
2022-12-04T09:41:39.774Z,2.67
2022-12-04T09:44:58.097Z,2.50
2022-12-04T09:48:09.115Z,2.40
2022-12-04T09:51:14.480Z,2.72
2022-12-04T09:54:34.922Z,2.67
2022-12-04T09:58:02.729Z,3.15
2022-12-04T10:01:07.548Z,2.77
2022-12-04T10:04:13.089Z,3.37
2022-12-04T10:07:48.042Z,2.80
2022-12-04T10:11:18.534Z,3.22
2022-12-04T10:14:37.535Z,2.25
2022-12-04T10:18:05.183Z,3.00
2022-12-04T10:21:38.514Z,2.92
2022-12-04T10:25:00.412Z,2.77
2022-12-04T10:28:36.727Z,2.92
2022-12-04T10:31:42.251Z,3.95
2022-12-04T10:34:47.774Z,3.08
2022-12-04T10:37:54.348Z,2.85
2022-12-04T10:41:03.219Z,2.25
2022-12-04T10:44:08.944Z,3.85
2022-12-04T10:47:17.720Z,3.95
2022-12-04T10:50:33.589Z,2.98
2022-12-04T10:53:38.528Z,2.20
2022-12-04T10:56:44.754Z,2.60
2022-12-04T10:59:50.099Z,2.75
2022-12-04T11:02:55.247Z,2.85
2022-12-04T11:06:03.130Z,3.27
2022-12-04T11:09:09.247Z,3.85
2022-12-04T11:12:28.472Z,2.90
2022-12-04T11:15:33.854Z,2.72
2022-12-04T11:18:36.023Z,3.08
2022-12-04T11:21:35.664Z,3.60
2022-12-04T11:24:42.986Z,3.20
2022-12-04T11:27:48.932Z,2.95
2022-12-04T11:30:54.203Z,3.40
2022-12-04T11:34:05.876Z,3.20
2022-12-04T11:37:11.704Z,3.35
2022-12-04T11:40:21.310Z,3.60
2022-12-04T11:43:29.563Z,2.77
2022-12-04T11:46:40.895Z,3.35
2022-12-04T11:49:46.509Z,2.52
2022-12-04T11:52:59.739Z,5.28
2022-12-04T11:56:29.279Z,3.75
2022-12-04T11:59:55.483Z,3.35
2022-12-04T12:03:25.536Z,2.87
2022-12-04T12:06:52.662Z,2.77
2022-12-04T12:10:12.463Z,3.60
2022-12-04T12:20:19.891Z,3.47
2022-12-04T12:23:35.679Z,3.02
2022-12-04T12:26:46.355Z,3.58
2022-12-04T12:30:19.804Z,3.60
2022-12-04T12:33:35.703Z,3.22
2022-12-04T12:36:43.689Z,3.20
2022-12-04T12:40:03.971Z,3.45
2022-12-04T12:43:16.009Z,3.67
2022-12-04T12:46:37.049Z,4.17
2022-12-04T12:49:51.499Z,3.45
2022-12-04T12:53:07.266Z,4.10
2022-12-04T12:56:13.452Z,4.20
2022-12-04T12:59:20.047Z,3.70
2022-12-04T13:02:50.072Z,3.85
2022-12-04T13:05:59.629Z,4.25
2022-12-04T13:09:37.198Z,3.30
2022-12-04T13:12:42.376Z,4.12
2022-12-04T13:16:03.046Z,3.70
2022-12-04T13:19:15.669Z,3.52
2022-12-04T13:22:43.236Z,3.67
2022-12-04T13:26:34.517Z,3.87
2022-12-04T13:30:21.271Z,3.50
2022-12-04T13:33:52.779Z,5.03
2022-12-04T13:37:17.252Z,4.05
2022-12-04T13:40:36.379Z,4.30
2022-12-04T13:44:07.173Z,4.60
2022-12-04T13:47:19.119Z,4.80
2022-12-04T13:50:34.652Z,4.45
2022-12-04T13:53:51.339Z,4.10
2022-12-04T13:57:05.237Z,4.47
2022-12-04T14:00:24.362Z,5.40
2022-12-04T14:03:50.777Z,4.45
2022-12-04T14:06:59.767Z,4.05
2022-12-04T14:10:06.943Z,5.58
2022-12-04T14:13:33.522Z,4.15
2022-12-04T14:16:52.434Z,3.15
2022-12-04T14:20:02.896Z,4.78
2022-12-04T14:23:05.790Z,5.37
2022-12-04T14:26:11.922Z,6.25
2022-12-04T14:29:46.793Z,4.10
2022-12-04T14:32:53.607Z,4.87
2022-12-04T14:36:05.391Z,4.00
2022-12-04T14:39:18.773Z,5.05
2022-12-04T14:42:40.071Z,4.72
2022-12-04T14:45:54.369Z,5.05
2022-12-04T14:49:12.511Z,5.15
2022-12-04T14:52:33.246Z,4.80
2022-12-04T14:56:07.994Z,5.20
2022-12-04T14:59:13.517Z,4.78
2022-12-04T15:02:17.850Z,4.65
2022-12-04T15:05:29.795Z,5.17
2022-12-04T15:08:35.198Z,4.83
2022-12-04T15:11:58.723Z,5.05
2022-12-04T15:15:04.435Z,6.10
2022-12-04T15:18:30.189Z,5.42
2022-12-04T15:21:37.161Z,4.03
2022-12-04T15:24:42.949Z,6.70
2022-12-04T15:27:48.903Z,5.75
2022-12-04T15:30:54.165Z,5.47
2022-12-04T15:33:54.309Z,5.25
2022-12-04T15:37:14.386Z,5.28
2022-12-04T15:40:23.566Z,5.55
2022-12-04T15:43:31.082Z,5.22
2022-12-04T15:46:46.802Z,6.70
2022-12-04T15:49:52.751Z,5.20
2022-12-04T15:53:33.241Z,6.45
2022-12-04T15:56:39.396Z,6.28
2022-12-04T15:59:44.672Z,5.75
2022-12-04T16:02:55.721Z,6.65
2022-12-04T16:06:00.664Z,6.92
2022-12-04T16:09:13.485Z,6.95
2022-12-04T16:12:32.877Z,5.72
2022-12-04T19:26:25.295Z,10.53
2022-12-04T19:29:32.590Z,5.85
2022-12-04T19:32:38.665Z,6.15
2022-12-04T19:35:44.735Z,4.53
2022-12-04T19:38:49.695Z,4.58
2022-12-04T19:41:56.217Z,6.40
2022-12-04T19:45:00.392Z,4.85
2022-12-04T19:48:06.305Z,7.45
2022-12-04T19:51:17.072Z,9.18
2022-12-04T19:54:26.310Z,8.08
2022-12-04T19:57:31.369Z,13.08
2022-12-04T20:00:36.399Z,5.65
2022-12-04T20:03:42.348Z,8.93
2022-12-04T20:06:53.226Z,7.45
2022-12-04T20:09:59.023Z,11.15
2022-12-04T20:13:04.039Z,11.57
2022-12-04T20:16:10.259Z,10.45
2022-12-04T20:19:17.484Z,12.35
2022-12-04T20:22:23.450Z,19.30
2022-12-04T20:25:29.704Z,7.72
2022-12-04T20:28:35.943Z,10.72
2022-12-04T20:31:47.344Z,9.65
2022-12-04T20:34:52.455Z,6.97
2022-12-04T20:37:58.067Z,15.58
2022-12-04T20:41:03.900Z,18.57
2022-12-04T20:44:10.582Z,18.80
2022-12-04T20:47:16.919Z,13.45
2022-12-04T20:50:23.318Z,9.98
2022-12-04T20:53:29.428Z,16.62
2022-12-04T20:56:37.153Z,9.88
2022-12-04T20:59:43.042Z,15.18
2022-12-04T21:02:50.238Z,14.60
2022-12-04T21:05:58.421Z,13.18
2022-12-04T21:09:04.872Z,21.20
2022-12-04T21:12:10.175Z,14.40
2022-12-04T21:15:33.318Z,7.45
2022-12-04T21:18:38.867Z,12.80
2022-12-04T21:21:45.493Z,11.93
2022-12-04T21:24:50.967Z,4.28
2022-12-04T21:27:56.869Z,15.00
2022-12-04T21:31:03.255Z,13.05
2022-12-04T21:34:08.019Z,12.60
2022-12-04T21:37:13.246Z,13.58
2022-12-04T21:40:18.779Z,20.02
2022-12-04T21:43:24.362Z,9.13
2022-12-04T21:46:31.036Z,11.25
2022-12-04T21:49:37.688Z,4.92
2022-12-04T21:52:43.954Z,14.20
2022-12-04T21:55:49.466Z,8.15
2022-12-04T21:58:55.278Z,10.63
2022-12-04T22:02:01.148Z,11.12
2022-12-04T22:05:06.589Z,4.47
2022-12-04T22:08:14.280Z,6.37
2022-12-04T22:11:24.539Z,8.83
2022-12-04T22:14:29.742Z,12.90
2022-12-04T22:17:35.644Z,10.53
2022-12-04T22:20:41.036Z,5.03
2022-12-04T22:23:47.040Z,4.42
2022-12-04T22:26:53.687Z,6.22
2022-12-04T22:29:59.682Z,4.33
2022-12-04T22:33:05.895Z,7.22
2022-12-04T22:36:16.066Z,10.00
2022-12-04T22:42:07.810Z,9.88
2022-12-04T22:45:13.696Z,5.55
2022-12-04T22:48:19.404Z,3.47
2022-12-04T22:51:33.527Z,10.70
2022-12-04T22:54:38.905Z,14.38
2022-12-04T22:57:43.464Z,3.70
2022-12-04T23:00:48.992Z,4.50
2022-12-04T23:03:54.556Z,4.95
2022-12-04T23:06:59.712Z,3.30
2022-12-04T23:09:58.386Z,4.20
2022-12-04T23:12:53.130Z,5.87
2022-12-04T23:16:02.444Z,5.40
2022-12-04T23:19:07.321Z,6.50
2022-12-04T23:22:12.804Z,4.78
2022-12-04T23:25:18.146Z,5.22
2022-12-04T23:28:23.673Z,6.12
2022-12-04T23:31:31.129Z,3.75
2022-12-04T23:34:36.146Z,5.08
2022-12-04T23:37:42.407Z,3.58
2022-12-04T23:40:47.223Z,5.12
2022-12-04T23:43:53.421Z,8.25
2022-12-04T23:46:58.861Z,6.35
2022-12-04T23:50:03.919Z,5.50
2022-12-04T23:53:03.069Z,6.90
2022-12-04T23:56:14.621Z,7.83
2022-12-04T23:59:20.705Z,7.70
